Time;durP1;ratioP1;P1;durP2;ratioP2;P2;SDS_P1;SDS_P2;PMS_P1;PMS_P2;Temp;Humidity;BMP_temperature;BMP_pressure;BME280_temperature;BME280_humidity;BME280_pressure;Samples;Min_cycle;Max_cycle;Signal;HPM_P1;HPM_P2
2023/12/17 00:00:34;;;;;;;15.00;4.60;;;;;;;;;;5077194;28;20016;-33
2023/12/17 00:02:59;;;;;;;10.27;4.17;;;;;;;;;;5076451;28;20094;-34
2023/12/17 00:05:24;;;;;;;15.35;4.40;;;;;;;;;;5076835;28;20297;-33
2023/12/17 00:07:49;;;;;;;12.47;4.27;;;;;;;;;;5075338;28;20075;-33
2023/12/17 00:10:15;;;;;;;10.73;4.10;;;;;;;;;;5076459;28;20250;-33
2023/12/17 00:12:40;;;;;;;11.65;4.22;;;;;;;;;;5076576;28;20340;-33
2023/12/17 00:15:06;;;;;;;8.48;4.15;;;;;;;;;;5076333;28;20025;-33
2023/12/17 00:17:31;;;;;;;13.30;4.15;;;;;;;;;;5076392;28;20070;-33
2023/12/17 00:19:56;;;;;;;13.77;4.00;;;;;;;;;;5076582;28;20409;-34
2023/12/17 00:22:21;;;;;;;12.47;4.20;;;;;;;;;;5076320;28;20149;-33
2023/12/17 00:24:46;;;;;;;15.33;3.90;;;;;;;;;;5076207;28;20255;-34
2023/12/17 00:27:14;;;;;;;10.37;3.67;;;;;;;;;;5076684;28;20275;-34
2023/12/17 00:29:39;;;;;;;15.00;3.75;;;;;;;;;;5076496;28;20250;-34
2023/12/17 00:32:05;;;;;;;11.90;3.97;;;;;;;;;;5076106;28;20072;-33
2023/12/17 00:34:30;;;;;;;14.82;3.70;;;;;;;;;;5074747;28;20362;-34
2023/12/17 00:36:55;;;;;;;8.98;4.28;;;;;;;;;;5075551;28;20363;-34
2023/12/17 00:39:20;;;;;;;9.50;3.88;;;;;;;;;;5076284;28;20451;-33
2023/12/17 00:41:46;;;;;;;13.27;4.23;;;;;;;;;;5076281;28;20371;-34
2023/12/17 00:44:11;;;;;;;9.43;4.03;;;;;;;;;;5076155;28;20354;-34
2023/12/17 00:46:36;;;;;;;12.27;4.80;;;;;;;;;;5075814;28;20324;-34
2023/12/17 00:49:01;;;;;;;14.38;4.45;;;;;;;;;;5075791;28;20095;-34
2023/12/17 00:51:26;;;;;;;11.30;4.20;;;;;;;;;;5075764;28;20425;-34
2023/12/17 00:53:52;;;;;;;10.80;4.53;;;;;;;;;;5075948;28;20271;-34
2023/12/17 00:56:17;;;;;;;11.53;4.17;;;;;;;;;;5076261;28;20070;-34
2023/12/17 00:58:42;;;;;;;11.10;5.30;;;;;;;;;;5075910;28;20583;-34
2023/12/17 01:01:08;;;;;;;10.57;4.47;;;;;;;;;;5076077;28;20034;-33
2023/12/17 01:03:33;;;;;;;14.00;4.70;;;;;;;;;;5075392;28;20291;-34
2023/12/17 01:05:59;;;;;;;9.48;4.70;;;;;;;;;;5075838;28;20022;-34
2023/12/17 01:08:24;;;;;;;9.43;4.70;;;;;;;;;;5075754;28;20016;-34
2023/12/17 01:10:49;;;;;;;8.75;4.50;;;;;;;;;;5075698;28;20024;-33
2023/12/17 01:13:14;;;;;;;9.03;4.33;;;;;;;;;;5075243;28;20024;-34
2023/12/17 01:15:39;;;;;;;12.13;4.77;;;;;;;;;;5075578;28;20274;-34
2023/12/17 01:18:05;;;;;;;8.17;4.13;;;;;;;;;;5075306;28;20255;-33
2023/12/17 01:20:30;;;;;;;12.90;4.63;;;;;;;;;;5075556;28;20304;-34
2023/12/17 01:22:55;;;;;;;12.30;5.00;;;;;;;;;;5075289;28;20243;-34
2023/12/17 01:25:20;;;;;;;12.32;4.88;;;;;;;;;;5075146;28;20369;-34
2023/12/17 01:27:45;;;;;;;10.83;4.53;;;;;;;;;;5075153;28;20494;-33
2023/12/17 01:30:11;;;;;;;14.05;5.40;;;;;;;;;;5074973;28;20258;-34
2023/12/17 01:32:36;;;;;;;9.25;4.63;;;;;;;;;;5075319;28;20020;-33
2023/12/17 01:35:02;;;;;;;14.20;4.70;;;;;;;;;;5075406;28;20103;-34
2023/12/17 01:37:28;;;;;;;12.68;5.10;;;;;;;;;;5074892;28;20358;-34
2023/12/17 01:39:53;;;;;;;14.70;5.03;;;;;;;;;;5075032;28;20447;-34
2023/12/17 01:42:18;;;;;;;13.63;4.68;;;;;;;;;;5073549;28;20104;-33
2023/12/17 01:44:44;;;;;;;8.83;4.70;;;;;;;;;;5075250;28;20031;-33
2023/12/17 01:47:09;;;;;;;10.47;4.70;;;;;;;;;;5073433;28;20269;-34
2023/12/17 01:49:34;;;;;;;17.83;6.57;;;;;;;;;;5074752;28;20294;-34
2023/12/17 01:52:00;;;;;;;11.15;5.20;;;;;;;;;;5074532;28;20020;-33
2023/12/17 01:54:25;;;;;;;13.82;4.78;;;;;;;;;;5075007;28;20044;-34
2023/12/17 01:56:51;;;;;;;13.27;5.35;;;;;;;;;;5074966;28;20020;-34
2023/12/17 01:59:16;;;;;;;8.90;4.55;;;;;;;;;;5074721;28;20529;-34
2023/12/17 02:01:43;;;;;;;12.10;4.60;;;;;;;;;;5074204;28;20016;-33
2023/12/17 02:04:09;;;;;;;12.90;5.00;;;;;;;;;;5074357;28;20251;-34
2023/12/17 02:06:34;;;;;;;10.85;4.90;;;;;;;;;;5074302;28;20432;-34
2023/12/17 02:08:59;;;;;;;12.30;4.75;;;;;;;;;;5074248;28;20044;-34
2023/12/17 02:11:24;;;;;;;8.88;4.95;;;;;;;;;;5074342;28;20032;-33
2023/12/17 02:13:50;;;;;;;12.47;4.77;;;;;;;;;;5074136;28;20025;-34
2023/12/17 02:16:15;;;;;;;9.27;4.80;;;;;;;;;;5074045;28;20289;-33
2023/12/17 02:18:40;;;;;;;8.97;4.50;;;;;;;;;;5074061;28;20016;-34
2023/12/17 02:21:05;;;;;;;9.17;4.20;;;;;;;;;;5074107;28;20021;-34
2023/12/17 02:23:31;;;;;;;8.55;4.22;;;;;;;;;;5074021;28;20269;-34
2023/12/17 02:25:56;;;;;;;8.80;4.80;;;;;;;;;;5074235;28;20340;-34
2023/12/17 02:28:21;;;;;;;7.73;4.53;;;;;;;;;;5073861;28;20298;-34
2023/12/17 02:30:46;;;;;;;10.50;4.83;;;;;;;;;;5074413;28;20258;-33
2023/12/17 02:33:11;;;;;;;11.80;4.70;;;;;;;;;;5073781;28;20804;-34
2023/12/17 02:35:37;;;;;;;8.48;4.43;;;;;;;;;;5074278;28;20289;-34
2023/12/17 02:38:02;;;;;;;9.73;4.50;;;;;;;;;;5074033;28;20039;-34
2023/12/17 02:40:27;;;;;;;13.05;5.35;;;;;;;;;;5073987;28;20372;-34
2023/12/17 02:42:52;;;;;;;8.53;4.23;;;;;;;;;;5072711;28;20375;-34
2023/12/17 02:45:18;;;;;;;8.27;4.03;;;;;;;;;;5073680;28;20247;-34
2023/12/17 02:47:43;;;;;;;10.00;4.60;;;;;;;;;;5073840;28;20308;-34
2023/12/17 02:50:08;;;;;;;7.00;4.00;;;;;;;;;;5074207;28;20338;-38
2023/12/17 02:52:34;;;;;;;7.82;4.25;;;;;;;;;;5073499;28;20273;-33
2023/12/17 02:54:59;;;;;;;9.57;4.38;;;;;;;;;;5073713;28;20043;-34
2023/12/17 02:57:24;;;;;;;7.63;4.10;;;;;;;;;;5073565;28;20017;-34
2023/12/17 02:59:51;;;;;;;11.35;4.30;;;;;;;;;;5073006;28;20331;-33
2023/12/17 03:02:16;;;;;;;8.85;4.25;;;;;;;;;;5073489;28;20036;-34
2023/12/17 03:04:41;;;;;;;8.97;4.20;;;;;;;;;;5073452;28;20082;-34
2023/12/17 03:07:06;;;;;;;10.30;3.80;;;;;;;;;;5073474;28;20262;-33
2023/12/17 03:09:31;;;;;;;9.00;3.37;;;;;;;;;;5073892;28;20247;-34
2023/12/17 03:11:57;;;;;;;5.83;3.00;;;;;;;;;;5073549;28;20255;-33
2023/12/17 03:14:22;;;;;;;6.90;3.27;;;;;;;;;;5073751;28;20455;-34
2023/12/17 03:16:47;;;;;;;13.17;3.43;;;;;;;;;;5073249;28;20251;-34
2023/12/17 03:19:12;;;;;;;7.60;3.20;;;;;;;;;;5073790;28;20239;-33
2023/12/17 03:21:37;;;;;;;9.07;3.13;;;;;;;;;;5073415;28;20658;-34
2023/12/17 03:24:05;;;;;;;11.27;3.20;;;;;;;;;;5073269;28;20250;-33
2023/12/17 03:26:30;;;;;;;4.78;3.03;;;;;;;;;;5073549;28;20748;-34
2023/12/17 03:28:55;;;;;;;9.73;3.47;;;;;;;;;;5073806;28;20025;-33
2023/12/17 03:31:20;;;;;;;6.97;3.30;;;;;;;;;;5073199;28;20319;-34
2023/12/17 03:33:46;;;;;;;10.00;3.13;;;;;;;;;;5073703;28;20358;-34
2023/12/17 03:36:13;;;;;;;6.80;3.20;;;;;;;;;;5073413;28;20717;-33
2023/12/17 03:38:38;;;;;;;11.05;3.75;;;;;;;;;;5073655;28;20366;-34
2023/12/17 03:41:03;;;;;;;6.70;3.10;;;;;;;;;;5073148;28;20103;-34
2023/12/17 03:43:28;;;;;;;9.75;3.55;;;;;;;;;;5073590;28;20243;-33
2023/12/17 03:45:54;;;;;;;10.53;3.17;;;;;;;;;;5073624;28;20031;-33
2023/12/17 03:48:19;;;;;;;7.93;3.00;;;;;;;;;;5073532;28;20333;-33
2023/12/17 03:50:44;;;;;;;9.55;3.22;;;;;;;;;;5072971;28;20074;-33
2023/12/17 03:53:10;;;;;;;10.10;3.20;;;;;;;;;;5072973;28;20352;-33
2023/12/17 03:55:38;;;;;;;9.73;3.10;;;;;;;;;;5073445;28;20634;-33
2023/12/17 03:58:04;;;;;;;8.20;3.30;;;;;;;;;;5073515;28;20019;-33
2023/12/17 04:00:29;;;;;;;7.43;3.00;;;;;;;;;;5073214;28;20020;-34
2023/12/17 04:02:54;;;;;;;7.20;3.10;;;;;;;;;;5072873;28;20066;-34
2023/12/17 04:05:19;;;;;;;7.27;3.20;;;;;;;;;;5073410;28;20028;-33
2023/12/17 04:07:44;;;;;;;9.32;3.35;;;;;;;;;;5071603;28;20262;-34
2023/12/17 04:10:10;;;;;;;8.27;3.00;;;;;;;;;;5073394;28;20024;-34
2023/12/17 04:12:35;;;;;;;9.63;3.40;;;;;;;;;;5074933;28;20619;-34
2023/12/17 04:15:00;;;;;;;7.57;3.25;;;;;;;;;;5076369;28;20524;-33
2023/12/17 04:17:25;;;;;;;9.67;3.30;;;;;;;;;;5076468;28;20016;-34
2023/12/17 04:19:50;;;;;;;9.87;3.70;;;;;;;;;;5076388;28;20258;-34
2023/12/17 04:22:16;;;;;;;10.10;4.05;;;;;;;;;;5076889;28;20255;-34
2023/12/17 04:24:41;;;;;;;14.07;3.83;;;;;;;;;;5076523;28;20024;-34
2023/12/17 04:27:06;;;;;;;10.23;3.90;;;;;;;;;;5076801;28;20009;-33
2023/12/17 04:29:31;;;;;;;10.30;3.85;;;;;;;;;;5076447;28;20259;-34
2023/12/17 04:31:57;;;;;;;9.23;4.07;;;;;;;;;;5076124;28;20016;-34
2023/12/17 04:34:23;;;;;;;13.88;4.70;;;;;;;;;;5076329;28;20017;-33
2023/12/17 04:36:48;;;;;;;12.85;4.85;;;;;;;;;;5076359;28;20041;-34
2023/12/17 04:39:13;;;;;;;15.32;4.97;;;;;;;;;;5075977;28;20032;-34
2023/12/17 04:41:39;;;;;;;14.43;4.50;;;;;;;;;;5076725;28;20082;-33
2023/12/17 04:44:04;;;;;;;12.98;4.47;;;;;;;;;;5075902;28;20032;-34
2023/12/17 04:46:30;;;;;;;14.43;4.80;;;;;;;;;;5076457;28;20089;-34
2023/12/17 04:48:55;;;;;;;13.68;4.00;;;;;;;;;;5075926;28;20027;-33
2023/12/17 04:51:22;;;;;;;14.43;3.45;;;;;;;;;;5075760;28;20021;-32
2023/12/17 04:53:47;;;;;;;10.68;3.30;;;;;;;;;;5075885;28;20078;-34
2023/12/17 04:56:12;;;;;;;8.65;3.30;;;;;;;;;;5075862;28;20383;-33
2023/12/17 04:58:38;;;;;;;9.05;2.83;;;;;;;;;;5075630;28;20024;-33
2023/12/17 05:01:03;;;;;;;15.27;3.50;;;;;;;;;;5075733;28;20067;-33
2023/12/17 05:03:28;;;;;;;10.30;3.40;;;;;;;;;;5075537;28;20270;-33
2023/12/17 05:05:53;;;;;;;9.70;3.33;;;;;;;;;;5075577;28;20092;-33
2023/12/17 05:08:19;;;;;;;11.67;3.30;;;;;;;;;;5075560;28;20293;-33
2023/12/17 05:10:44;;;;;;;8.10;3.20;;;;;;;;;;5075490;28;20247;-33
2023/12/17 05:13:09;;;;;;;12.68;4.38;;;;;;;;;;5075363;28;20459;-33
2023/12/17 05:15:35;;;;;;;8.85;3.38;;;;;;;;;;5075302;28;20017;-33
2023/12/17 05:18:00;;;;;;;14.75;3.72;;;;;;;;;;5075611;28;20023;-32
2023/12/17 05:20:25;;;;;;;13.60;4.30;;;;;;;;;;5075516;28;20055;-32
2023/12/17 05:22:50;;;;;;;13.47;4.50;;;;;;;;;;5074867;28;20020;-32
2023/12/17 05:25:16;;;;;;;17.20;4.67;;;;;;;;;;5075508;28;20255;-31
2023/12/17 05:27:41;;;;;;;10.80;4.07;;;;;;;;;;5075106;28;20257;-31
2023/12/17 05:30:06;;;;;;;13.18;4.32;;;;;;;;;;5075270;28;20251;-31
2023/12/17 05:32:32;;;;;;;16.45;4.32;;;;;;;;;;5075047;28;20021;-32
2023/12/17 05:34:57;;;;;;;10.23;3.45;;;;;;;;;;5075457;28;20067;-32
2023/12/17 05:37:22;;;;;;;9.65;3.75;;;;;;;;;;5075246;28;20009;-31
2023/12/17 05:39:47;;;;;;;14.07;3.70;;;;;;;;;;5074906;28;20013;-32
2023/12/17 05:42:13;;;;;;;15.43;3.70;;;;;;;;;;5075394;28;20334;-32
2023/12/17 05:44:38;;;;;;;10.18;4.05;;;;;;;;;;5075058;28;20765;-32
2023/12/17 05:47:03;;;;;;;13.43;4.13;;;;;;;;;;5075255;28;20023;-32
2023/12/17 05:49:28;;;;;;;17.60;5.18;;;;;;;;;;5075195;28;20283;-32
2023/12/17 05:51:53;;;;;;;18.60;5.40;;;;;;;;;;5074706;28;20372;-32
2023/12/17 05:54:19;;;;;;;16.57;6.00;;;;;;;;;;5074593;28;20279;-32
2023/12/17 05:56:44;;;;;;;13.40;6.10;;;;;;;;;;5074541;28;20807;-32
2023/12/17 05:59:09;;;;;;;24.27;6.50;;;;;;;;;;5075084;28;20248;-32
2023/12/17 06:01:35;;;;;;;17.73;6.60;;;;;;;;;;5074836;28;20279;-31
2023/12/17 06:04:00;;;;;;;15.60;5.90;;;;;;;;;;5074413;28;20027;-32
2023/12/17 06:06:26;;;;;;;24.92;6.70;;;;;;;;;;5074601;28;20016;-36
2023/12/17 06:08:51;;;;;;;15.10;6.20;;;;;;;;;;5074258;28;20020;-31
2023/12/17 06:11:16;;;;;;;13.55;6.38;;;;;;;;;;5073937;28;20025;-32
2023/12/17 06:13:42;;;;;;;15.18;6.07;;;;;;;;;;5074308;28;20024;-32
2023/12/17 06:16:08;;;;;;;15.95;5.95;;;;;;;;;;5074460;28;20017;-32
2023/12/17 06:18:33;;;;;;;16.05;6.47;;;;;;;;;;5074344;28;20076;-32
2023/12/17 06:21:00;;;;;;;16.25;5.88;;;;;;;;;;5074396;28;20015;-31
2023/12/17 06:23:25;;;;;;;19.92;6.80;;;;;;;;;;5074248;28;20372;-32
2023/12/17 06:25:50;;;;;;;21.35;7.80;;;;;;;;;;5073946;28;20025;-32
2023/12/17 06:28:16;;;;;;;22.90;7.87;;;;;;;;;;5073976;28;20357;-32
2023/12/17 06:30:41;;;;;;;20.13;7.65;;;;;;;;;;5073865;28;20271;-33
2023/12/17 06:33:06;;;;;;;25.90;8.40;;;;;;;;;;5074147;28;20024;-32
2023/12/17 06:35:31;;;;;;;22.10;8.50;;;;;;;;;;5073075;28;20263;-32
2023/12/17 06:37:57;;;;;;;21.67;8.25;;;;;;;;;;5073805;28;20255;-32
2023/12/17 06:40:22;;;;;;;24.77;8.17;;;;;;;;;;5074375;28;20017;-32
2023/12/17 06:42:47;;;;;;;26.33;8.70;;;;;;;;;;5073752;28;20785;-32
2023/12/17 06:45:12;;;;;;;23.80;8.57;;;;;;;;;;5073640;28;20251;-32
2023/12/17 06:47:37;;;;;;;21.60;8.88;;;;;;;;;;5072490;28;20027;-32
2023/12/17 06:50:03;;;;;;;22.67;9.13;;;;;;;;;;5073662;28;20028;-31
2023/12/17 06:52:28;;;;;;;28.40;10.15;;;;;;;;;;5074151;28;20270;-32
2023/12/17 06:54:53;;;;;;;23.27;9.52;;;;;;;;;;5073548;28;20050;-31
2023/12/17 06:57:18;;;;;;;26.45;10.07;;;;;;;;;;5073778;28;20384;-39
2023/12/17 06:59:44;;;;;;;20.58;9.77;;;;;;;;;;5073792;28;20047;-32
2023/12/17 07:02:09;;;;;;;23.10;9.80;;;;;;;;;;5073811;28;20079;-32
2023/12/17 07:04:34;;;;;;;24.37;9.63;;;;;;;;;;5073462;28;20668;-32
2023/12/17 07:06:59;;;;;;;19.73;9.48;;;;;;;;;;5074015;28;20273;-31
2023/12/17 07:09:25;;;;;;;23.08;9.45;;;;;;;;;;5073690;28;20024;-32
2023/12/17 07:11:50;;;;;;;21.02;9.48;;;;;;;;;;5073356;28;20478;-32
2023/12/17 07:14:15;;;;;;;25.80;10.65;;;;;;;;;;5073563;28;20025;-32
2023/12/17 07:16:40;;;;;;;27.80;10.90;;;;;;;;;;5073978;28;20032;-31
2023/12/17 07:19:05;;;;;;;22.50;11.00;;;;;;;;;;5073385;28;20606;-32
2023/12/17 07:21:31;;;;;;;22.20;11.03;;;;;;;;;;5073845;28;20290;-32
2023/12/17 07:23:56;;;;;;;32.15;12.30;;;;;;;;;;5073791;28;20588;-32
2023/12/17 07:26:21;;;;;;;22.77;11.60;;;;;;;;;;5073561;28;20511;-32
2023/12/17 07:28:46;;;;;;;29.48;12.90;;;;;;;;;;5073138;28;20023;-32
2023/12/17 07:31:11;;;;;;;29.53;13.23;;;;;;;;;;5073766;28;20031;-31
2023/12/17 07:33:36;;;;;;;31.57;13.13;;;;;;;;;;5073138;28;20741;-32
2023/12/17 07:36:02;;;;;;;32.07;13.43;;;;;;;;;;5073395;28;20437;-32
2023/12/17 07:38:27;;;;;;;30.77;13.13;;;;;;;;;;5073700;28;20710;-32
2023/12/17 07:40:52;;;;;;;35.53;14.98;;;;;;;;;;5073147;28;20039;-31
2023/12/17 07:43:17;;;;;;;34.33;14.60;;;;;;;;;;5073622;28;20024;-32
2023/12/17 07:45:43;;;;;;;41.53;15.30;;;;;;;;;;5073762;28;20254;-32
2023/12/17 07:48:08;;;;;;;31.43;13.97;;;;;;;;;;5077263;28;20463;-32
2023/12/17 07:50:34;;;;;;;31.70;14.47;;;;;;;;;;5077479;28;20262;-31
2023/12/17 07:53:00;;;;;;;33.55;14.55;;;;;;;;;;5077243;28;20254;-32
2023/12/17 07:55:25;;;;;;;31.75;13.43;;;;;;;;;;5076783;28;20020;-32
2023/12/17 07:57:50;;;;;;;28.17;12.47;;;;;;;;;;5076794;28;20016;-33
2023/12/17 08:00:15;;;;;;;28.77;13.20;;;;;;;;;;5076789;28;20722;-33
2023/12/17 08:02:41;;;;;;;27.48;12.77;;;;;;;;;;5076416;28;20286;-33
2023/12/17 08:05:07;;;;;;;25.27;13.18;;;;;;;;;;5076692;28;20023;-33
2023/12/17 08:07:32;;;;;;;28.60;12.18;;;;;;;;;;5076947;28;20016;-33
2023/12/17 08:09:58;;;;;;;29.65;12.32;;;;;;;;;;5076581;28;20023;-33
2023/12/17 08:12:23;;;;;;;23.77;11.13;;;;;;;;;;5076692;28;20113;-32
2023/12/17 08:14:48;;;;;;;28.88;11.70;;;;;;;;;;5076951;28;20021;-32
2023/12/17 08:17:13;;;;;;;23.57;11.07;;;;;;;;;;5076789;28;20406;-33
2023/12/17 08:19:38;;;;;;;21.40;11.20;;;;;;;;;;5076379;28;20286;-33
2023/12/17 08:22:04;;;;;;;22.80;11.00;;;;;;;;;;5076680;28;20251;-33
2023/12/17 08:24:29;;;;;;;21.75;9.88;;;;;;;;;;5076316;28;20487;-32
2023/12/17 08:26:57;;;;;;;21.40;10.70;;;;;;;;;;5076774;28;20020;-33
2023/12/17 08:29:22;;;;;;;19.55;10.93;;;;;;;;;;5076499;28;20406;-32
2023/12/17 08:31:47;;;;;;;22.08;10.10;;;;;;;;;;5076491;28;20025;-32
2023/12/17 08:34:13;;;;;;;23.58;10.18;;;;;;;;;;5076325;28;20075;-36
2023/12/17 08:36:41;;;;;;;22.38;10.20;;;;;;;;;;5076409;28;20024;-32
2023/12/17 08:39:06;;;;;;;19.75;9.88;;;;;;;;;;5076431;28;20036;-33
2023/12/17 08:41:33;;;;;;;22.67;9.68;;;;;;;;;;5076037;28;20046;-33
2023/12/17 08:43:59;;;;;;;24.08;9.95;;;;;;;;;;5075965;28;20028;-33
2023/12/17 08:46:24;;;;;;;22.02;9.93;;;;;;;;;;5076201;28;20009;-33
2023/12/17 08:48:49;;;;;;;25.47;10.13;;;;;;;;;;5075851;28;20085;-33
2023/12/17 08:51:14;;;;;;;18.63;9.90;;;;;;;;;;5076416;28;20254;-33
2023/12/17 08:53:41;;;;;;;22.08;8.98;;;;;;;;;;5075742;28;20255;-32
2023/12/17 08:56:07;;;;;;;19.95;8.70;;;;;;;;;;5076050;28;20375;-33
2023/12/17 08:58:32;;;;;;;22.77;10.05;;;;;;;;;;5074809;28;20056;-33
2023/12/17 09:00:58;;;;;;;17.98;9.15;;;;;;;;;;5075584;28;20059;-32
2023/12/17 09:03:23;;;;;;;20.75;9.98;;;;;;;;;;5075525;28;20154;-32
2023/12/17 09:05:48;;;;;;;20.42;9.90;;;;;;;;;;5076096;28;20024;-32
2023/12/17 09:08:13;;;;;;;16.52;9.18;;;;;;;;;;5075554;28;20052;-32
2023/12/17 09:10:38;;;;;;;19.30;9.70;;;;;;;;;;5076091;28;20055;-33
2023/12/17 09:13:03;;;;;;;25.80;10.30;;;;;;;;;;5075438;28;20025;-33
2023/12/17 09:15:29;;;;;;;19.23;9.57;;;;;;;;;;5075956;28;20360;-33
2023/12/17 09:17:54;;;;;;;23.48;10.32;;;;;;;;;;5075331;28;20254;-33
2023/12/17 09:20:19;;;;;;;23.37;10.43;;;;;;;;;;5075871;28;20015;-33
2023/12/17 09:22:44;;;;;;;20.58;11.00;;;;;;;;;;5075442;28;20283;-33
2023/12/17 09:25:09;;;;;;;21.97;10.20;;;;;;;;;;5075276;28;20460;-33
2023/12/17 09:27:35;;;;;;;19.42;10.55;;;;;;;;;;5075710;28;20337;-32
2023/12/17 09:30:00;;;;;;;26.83;10.70;;;;;;;;;;5075634;28;20028;-32
2023/12/17 09:32:26;;;;;;;19.80;10.03;;;;;;;;;;5075628;28;20019;-32
2023/12/17 09:34:51;;;;;;;18.42;10.13;;;;;;;;;;5075013;28;20271;-33
2023/12/17 09:37:17;;;;;;;24.98;11.80;;;;;;;;;;5074957;28;20020;-33
2023/12/17 09:39:42;;;;;;;26.73;12.82;;;;;;;;;;5074862;28;20024;-33
2023/12/17 09:42:07;;;;;;;26.97;12.70;;;;;;;;;;5075399;28;20066;-33
2023/12/17 09:44:32;;;;;;;29.13;13.05;;;;;;;;;;5074797;28;20282;-32
2023/12/17 09:46:58;;;;;;;30.75;13.38;;;;;;;;;;5075266;28;20032;-33
2023/12/17 09:49:23;;;;;;;32.90;13.98;;;;;;;;;;5074981;28;20032;-33
2023/12/17 09:51:56;;;;;;;26.50;13.40;;;;;;;;;;5074961;28;20056;-33
2023/12/17 09:54:21;;;;;;;;;;;;;;;;;;5075442;28;20370;-33
2023/12/17 09:56:47;;;;;;;25.90;12.57;;;;;;;;;;5075095;28;19974;-32
2023/12/17 09:59:12;;;;;;;26.60;13.27;;;;;;;;;;5074759;28;20348;-32
2023/12/17 10:01:38;;;;;;;25.23;12.55;;;;;;;;;;5074725;28;20021;-32
2023/12/17 10:04:03;;;;;;;26.33;13.67;;;;;;;;;;5074229;28;20052;-32
2023/12/17 10:06:30;;;;;;;31.90;13.70;;;;;;;;;;5074302;28;20647;-32
2023/12/17 10:08:58;;;;;;;31.80;14.68;;;;;;;;;;5074242;28;20273;-32
2023/12/17 10:11:23;;;;;;;28.25;14.13;;;;;;;;;;5074174;28;20021;-32
2023/12/17 10:13:49;;;;;;;30.52;14.25;;;;;;;;;;5074441;28;20016;-33
2023/12/17 10:16:14;;;;;;;29.15;13.52;;;;;;;;;;5072935;28;20464;-33
2023/12/17 10:18:39;;;;;;;28.98;13.35;;;;;;;;;;5074724;28;20017;-33
2023/12/17 10:21:07;;;;;;;27.60;14.00;;;;;;;;;;5074769;28;20078;-33
2023/12/17 10:23:44;;;;;;;32.90;15.48;;;;;;;;;;5074325;28;20017;-33
2023/12/17 10:26:10;;;;;;;31.08;13.73;;;;;;;;;;5074091;28;20024;-40
2023/12/17 10:28:35;;;;;;;29.17;14.98;;;;;;;;;;5074011;28;20568;-33
2023/12/17 10:31:01;;;;;;;30.50;15.23;;;;;;;;;;5074202;28;20035;-33
2023/12/17 10:33:30;;;;;;;40.17;18.17;;;;;;;;;;5073936;28;20134;-32
2023/12/17 10:35:55;;;;;;;44.65;18.98;;;;;;;;;;5074321;28;20375;-33
2023/12/17 10:38:22;;;;;;;45.00;20.00;;;;;;;;;;5074196;28;20028;-32
2023/12/17 10:40:48;;;;;;;48.83;20.48;;;;;;;;;;5072285;28;20009;-33
2023/12/17 10:43:14;;;;;;;49.63;20.40;;;;;;;;;;5073795;28;20012;-33
2023/12/17 10:45:40;;;;;;;43.80;19.10;;;;;;;;;;5073735;28;20013;-32
2023/12/17 10:48:05;;;;;;;52.70;20.10;;;;;;;;;;5074269;28;20026;-32
2023/12/17 10:50:32;;;;;;;44.83;19.85;;;;;;;;;;5073692;28;20027;-33
2023/12/17 10:52:57;;;;;;;44.42;19.30;;;;;;;;;;5073949;28;20498;-33
2023/12/17 10:55:23;;;;;;;42.90;19.02;;;;;;;;;;5074073;28;20154;-33
2023/12/17 10:57:54;;;;;;;44.88;20.55;;;;;;;;;;5073874;28;20016;-33
2023/12/17 11:00:21;;;;;;;45.85;21.17;;;;;;;;;;5073537;28;20024;-33
2023/12/17 11:02:49;;;;;;;42.85;20.85;;;;;;;;;;5073326;28;20052;-33
2023/12/17 11:05:14;;;;;;;42.03;19.08;;;;;;;;;;5073434;28;20025;-33
2023/12/17 11:07:40;;;;;;;39.83;19.85;;;;;;;;;;5073486;28;20035;-33
2023/12/17 11:10:06;;;;;;;38.80;19.55;;;;;;;;;;5073975;28;20467;-32
2023/12/17 11:12:33;;;;;;;40.55;19.60;;;;;;;;;;5073651;28;20039;-33
2023/12/17 11:14:58;;;;;;;34.08;17.17;;;;;;;;;;5073823;28;20028;-32
2023/12/17 11:17:24;;;;;;;37.80;18.40;;;;;;;;;;5073254;28;20095;-33
2023/12/17 11:19:53;;;;;;;33.42;16.67;;;;;;;;;;5073966;28;20372;-33
2023/12/17 11:22:18;;;;;;;30.40;16.33;;;;;;;;;;5079983;28;20012;-34
2023/12/17 11:24:53;;;;;;;30.33;16.27;;;;;;;;;;5080535;28;20036;-33
2023/12/17 11:27:21;;;;;;;39.25;17.80;;;;;;;;;;5078689;28;20064;-33
2023/12/17 11:29:47;;;;;;;31.17;17.63;;;;;;;;;;5080179;28;20486;-33
2023/12/17 11:32:13;;;;;;;33.50;17.27;;;;;;;;;;5079885;28;20017;-33
2023/12/17 11:34:39;;;;;;;30.70;16.38;;;;;;;;;;5080040;28;20024;-33
2023/12/17 11:37:05;;;;;;;33.75;16.48;;;;;;;;;;5080386;28;20026;-33
2023/12/17 11:39:31;;;;;;;31.17;16.60;;;;;;;;;;5078852;28;20023;-33
2023/12/17 11:41:56;;;;;;;29.75;15.32;;;;;;;;;;5079852;28;20349;-33
2023/12/17 11:44:21;;;;;;;31.80;16.50;;;;;;;;;;5079759;28;20035;-33
2023/12/17 11:46:47;;;;;;;27.55;14.30;;;;;;;;;;5079768;28;20410;-33
2023/12/17 11:49:13;;;;;;;29.13;14.85;;;;;;;;;;5079962;28;20033;-34
2023/12/17 11:51:38;;;;;;;32.53;13.55;;;;;;;;;;5079658;28;20021;-32
2023/12/17 11:54:03;;;;;;;33.97;14.33;;;;;;;;;;5079545;28;20027;-33
2023/12/17 11:56:32;;;;;;;34.13;13.35;;;;;;;;;;5080117;28;20326;-32
2023/12/17 11:58:57;;;;;;;31.77;14.02;;;;;;;;;;5078745;28;20016;-32
2023/12/17 12:01:22;;;;;;;30.58;13.07;;;;;;;;;;5079801;28;20019;-33
2023/12/17 12:03:47;;;;;;;26.67;13.10;;;;;;;;;;5079384;28;20526;-32
2023/12/17 12:06:14;;;;;;;29.80;13.40;;;;;;;;;;5079954;28;20100;-33
2023/12/17 12:08:48;;;;;;;28.95;12.80;;;;;;;;;;5079739;28;20140;-33
2023/12/17 12:11:14;;;;;;;25.73;12.40;;;;;;;;;;5079400;28;20017;-33
2023/12/17 12:13:42;;;;;;;25.92;12.68;;;;;;;;;;5079556;28;20017;-33
2023/12/17 12:16:08;;;;;;;22.23;12.35;;;;;;;;;;5079655;28;20016;-33
2023/12/17 12:18:33;;;;;;;28.25;12.25;;;;;;;;;;5079873;28;20086;-32
2023/12/17 12:20:58;;;;;;;25.00;11.10;;;;;;;;;;5079728;28;20521;-32
2023/12/17 12:23:23;;;;;;;22.17;11.05;;;;;;;;;;5078565;28;20254;-33
2023/12/17 12:25:49;;;;;;;27.50;10.90;;;;;;;;;;5077746;28;20028;-33
2023/12/17 12:28:18;;;;;;;22.88;10.40;;;;;;;;;;5077298;28;20262;-33
2023/12/17 12:30:43;;;;;;;24.25;10.13;;;;;;;;;;5079501;28;20025;-33
2023/12/17 12:33:10;;;;;;;26.17;10.85;;;;;;;;;;5076129;28;20482;-32
2023/12/17 12:35:35;;;;;;;22.25;10.13;;;;;;;;;;5076154;28;20111;-34
2023/12/17 12:38:00;;;;;;;25.08;10.50;;;;;;;;;;5076087;28;20478;-33
2023/12/17 12:40:30;;;;;;;20.70;9.30;;;;;;;;;;5074993;28;20020;-33
2023/12/17 12:43:02;;;;;;;24.58;9.23;;;;;;;;;;5073779;28;20043;-33
2023/12/17 12:45:27;;;;;;;22.98;8.77;;;;;;;;;;5074082;28;20021;-34
2023/12/17 12:47:52;;;;;;;20.17;8.77;;;;;;;;;;5073945;28;20056;-33
2023/12/17 12:50:18;;;;;;;19.48;8.38;;;;;;;;;;5073904;28;20024;-34
2023/12/17 12:52:43;;;;;;;18.03;8.03;;;;;;;;;;5074112;28;20037;-33
2023/12/17 12:55:08;;;;;;;21.50;8.37;;;;;;;;;;5073774;28;20025;-33
2023/12/17 12:57:33;;;;;;;21.95;8.07;;;;;;;;;;5075886;28;20024;-33
2023/12/17 12:59:58;;;;;;;20.00;7.33;;;;;;;;;;5075810;28;20017;-33
2023/12/17 13:02:24;;;;;;;19.00;7.03;;;;;;;;;;5074431;28;20036;-33
2023/12/17 13:04:49;;;;;;;19.17;6.77;;;;;;;;;;5075784;28;20255;-32
2023/12/17 13:07:14;;;;;;;19.50;7.10;;;;;;;;;;5075642;28;20274;-33
2023/12/17 13:09:40;;;;;;;21.67;6.97;;;;;;;;;;5075915;28;20093;-33
2023/12/17 13:12:06;;;;;;;18.63;6.57;;;;;;;;;;5075611;28;20024;-32
2023/12/17 13:14:32;;;;;;;21.10;6.72;;;;;;;;;;5075443;28;20027;-33
2023/12/17 13:16:57;;;;;;;26.60;6.88;;;;;;;;;;5075545;28;20020;-33
2023/12/17 13:19:24;;;;;;;22.97;6.40;;;;;;;;;;5075952;28;20024;-33
2023/12/17 13:21:49;;;;;;;17.75;6.18;;;;;;;;;;5075391;28;20305;-32
2023/12/17 13:24:14;;;;;;;20.70;6.27;;;;;;;;;;5074051;28;20039;-32
2023/12/17 13:26:40;;;;;;;17.08;5.72;;;;;;;;;;5075841;28;20328;-33
2023/12/17 13:29:05;;;;;;;23.88;5.82;;;;;;;;;;5075537;28;20498;-32
2023/12/17 13:31:30;;;;;;;19.80;5.88;;;;;;;;;;5075158;28;20463;-32
2023/12/17 13:33:55;;;;;;;26.90;5.85;;;;;;;;;;5073874;28;20074;-32
2023/12/17 13:36:21;;;;;;;21.02;6.13;;;;;;;;;;5075113;28;20024;-33
2023/12/17 13:38:46;;;;;;;16.40;5.32;;;;;;;;;;5075406;28;20020;-33
2023/12/17 13:41:12;;;;;;;20.25;5.47;;;;;;;;;;5075556;28;20021;-37
2023/12/17 13:43:37;;;;;;;21.65;5.70;;;;;;;;;;5074598;28;20051;-32
2023/12/17 13:46:02;;;;;;;19.93;5.53;;;;;;;;;;5075473;28;20111;-32
2023/12/17 13:48:27;;;;;;;20.40;5.55;;;;;;;;;;5074795;28;20667;-32
2023/12/17 13:50:52;;;;;;;18.93;6.20;;;;;;;;;;5075086;28;20417;-32
2023/12/17 13:53:19;;;;;;;17.07;5.37;;;;;;;;;;5074680;28;20258;-33
2023/12/17 13:55:45;;;;;;;22.70;5.60;;;;;;;;;;5074544;28;20356;-32
2023/12/17 13:58:10;;;;;;;18.77;5.00;;;;;;;;;;5075172;28;20020;-32
2023/12/17 14:00:35;;;;;;;22.97;5.97;;;;;;;;;;5074558;28;20721;-32
2023/12/17 14:03:00;;;;;;;16.80;4.93;;;;;;;;;;5074634;28;20285;-32
2023/12/17 14:05:28;;;;;;;18.25;4.97;;;;;;;;;;5073367;28;20281;-33
2023/12/17 14:07:54;;;;;;;17.60;4.97;;;;;;;;;;5074690;28;20016;-33
2023/12/17 14:10:19;;;;;;;17.20;4.93;;;;;;;;;;5074430;28;20020;-33
2023/12/17 14:12:44;;;;;;;18.05;5.53;;;;;;;;;;5074868;28;20023;-32
2023/12/17 14:15:09;;;;;;;16.90;4.77;;;;;;;;;;5074769;28;20060;-33
2023/12/17 14:17:34;;;;;;;16.92;5.32;;;;;;;;;;5074624;28;20736;-33